createdAt,value
2019-05-25T00:01:20.926Z,76.10
2019-05-25T00:03:47.543Z,76.40
2019-05-25T00:06:14.194Z,76.40
2019-05-25T00:08:40.723Z,76.60
2019-05-25T00:11:07.227Z,76.40
2019-05-25T00:13:33.787Z,77.30
2019-05-25T00:16:00.400Z,77.40
2019-05-25T00:18:26.927Z,77.60
2019-05-25T00:20:53.577Z,78.10
2019-05-25T00:23:20.104Z,78.40
2019-05-25T00:25:46.522Z,78.60
2019-05-25T00:28:13.006Z,78.80
2019-05-25T00:30:39.424Z,79.30
2019-05-25T00:33:05.935Z,78.70
2019-05-25T00:35:32.595Z,78.50
2019-05-25T00:37:59.105Z,78.80
2019-05-25T00:40:25.623Z,79.10
2019-05-25T00:42:53.625Z,79.20
2019-05-25T00:45:20.205Z,79.40
2019-05-25T00:47:46.836Z,79.70
2019-05-25T00:50:13.485Z,79.90
2019-05-25T00:52:40.088Z,80.20
2019-05-25T00:55:07.693Z,80.30
2019-05-25T00:57:34.174Z,80.60
2019-05-25T01:00:01.020Z,80.50
2019-05-25T01:02:27.622Z,80.60
2019-05-25T01:04:54.194Z,81.50
2019-05-25T01:07:20.826Z,81.40
2019-05-25T01:09:47.469Z,81.60
2019-05-25T01:12:13.896Z,81.70
2019-05-25T01:14:40.515Z,82.00
2019-05-25T01:17:07.084Z,82.20
2019-05-25T01:19:33.720Z,82.10
2019-05-25T01:22:00.375Z,82.20
2019-05-25T01:24:41.133Z,82.80
2019-05-25T01:26:55.114Z,83.00
2019-05-25T01:29:21.573Z,83.40
2019-05-25T01:31:48.163Z,83.60
2019-05-25T01:34:14.755Z,83.40
2019-05-25T01:36:41.251Z,83.50
2019-05-25T01:39:07.915Z,83.80
2019-05-25T01:41:34.424Z,83.90
2019-05-25T01:44:00.927Z,84.10
2019-05-25T01:46:27.383Z,84.10
2019-05-25T01:48:53.885Z,83.70
2019-05-25T01:51:20.392Z,84.50
2019-05-25T01:53:47.365Z,83.50
2019-05-25T01:56:13.777Z,83.30
2019-05-25T01:58:40.185Z,84.30
2019-05-25T02:01:06.836Z,84.20
2019-05-25T02:03:33.449Z,84.40
2019-05-25T02:05:59.852Z,84.10
2019-05-25T02:08:26.308Z,84.10
2019-05-25T02:10:52.822Z,83.40
2019-05-25T02:13:19.244Z,83.20
2019-05-25T02:15:46.257Z,82.60
2019-05-25T02:18:12.760Z,82.70
2019-05-25T02:20:39.258Z,82.80
2019-05-25T02:23:05.711Z,83.40
2019-05-25T02:25:32.229Z,84.10
2019-05-25T02:27:58.621Z,84.00
2019-05-25T02:30:25.284Z,83.80
2019-05-25T02:32:52.365Z,82.90
2019-05-25T02:35:25.321Z,82.40
2019-05-25T02:37:52.256Z,82.20
2019-05-25T02:40:19.562Z,83.00
2019-05-25T02:42:46.473Z,83.70
2019-05-25T02:45:13.628Z,83.80
2019-05-25T02:47:40.022Z,84.30
2019-05-25T02:50:06.739Z,85.10
2019-05-25T02:52:33.413Z,84.90
2019-05-25T02:55:00.033Z,86.10
2019-05-25T02:57:26.545Z,87.20
2019-05-25T02:59:52.972Z,87.70
2019-05-25T03:02:19.965Z,88.80
2019-05-25T03:04:46.510Z,87.00
2019-05-25T03:07:13.102Z,87.40
2019-05-25T03:09:40.209Z,87.00
2019-05-25T03:12:06.852Z,87.40
2019-05-25T03:14:33.885Z,87.50
2019-05-25T03:17:00.380Z,87.30
2019-05-25T03:19:26.932Z,87.60
2019-05-25T03:21:53.463Z,87.70
2019-05-25T03:24:20.003Z,87.80
2019-05-25T03:26:46.554Z,88.00
2019-05-25T03:29:13.058Z,88.90
2019-05-25T03:31:39.572Z,88.90
2019-05-25T03:34:06.214Z,88.70
2019-05-25T03:36:34.109Z,89.40
2019-05-25T03:39:00.806Z,88.90
2019-05-25T03:41:27.325Z,88.40
2019-05-25T03:43:53.842Z,88.60
2019-05-25T03:46:20.282Z,88.80
2019-05-25T03:48:46.790Z,89.00
2019-05-25T03:51:13.293Z,89.20
2019-05-25T03:53:39.813Z,89.40
2019-05-25T03:56:06.638Z,89.70
2019-05-25T03:58:33.403Z,88.70
2019-05-25T04:01:00.006Z,88.50
2019-05-25T04:03:26.459Z,89.00
2019-05-25T04:05:53.063Z,88.70
2019-05-25T04:08:19.673Z,89.20
2019-05-25T04:10:46.232Z,89.40
2019-05-25T04:13:12.635Z,89.60
2019-05-25T04:15:39.107Z,89.70
2019-05-25T04:18:05.534Z,89.50
2019-05-25T04:20:32.129Z,89.50
2019-05-25T04:22:58.920Z,89.60
2019-05-25T04:25:25.375Z,89.90
2019-05-25T04:27:51.876Z,89.80
2019-05-25T04:30:19.686Z,89.60
2019-05-25T04:32:46.245Z,89.70
2019-05-25T04:35:13.249Z,90.10
2019-05-25T04:37:40.183Z,90.10
2019-05-25T04:40:07.797Z,90.20
2019-05-25T04:42:34.429Z,90.00
2019-05-25T04:45:01.076Z,90.10
2019-05-25T04:47:27.584Z,89.90
2019-05-25T04:49:54.031Z,90.10
2019-05-25T04:52:20.947Z,90.30
2019-05-25T04:54:47.352Z,90.10
2019-05-25T04:57:13.961Z,90.10
2019-05-25T04:59:40.489Z,89.70
2019-05-25T05:02:07.103Z,88.40
2019-05-25T05:04:33.770Z,88.30
2019-05-25T05:07:00.329Z,87.70
2019-05-25T05:09:26.743Z,87.30
2019-05-25T05:11:53.535Z,87.70
2019-05-25T05:14:20.089Z,88.40
2019-05-25T05:16:46.593Z,88.00
2019-05-25T05:19:13.011Z,88.40
2019-05-25T05:21:39.560Z,88.00
2019-05-25T05:24:06.060Z,87.80
2019-05-25T05:26:32.471Z,87.60
2019-05-25T05:28:58.942Z,88.00
2019-05-25T05:31:25.559Z,87.30
2019-05-25T05:33:52.109Z,87.10
2019-05-25T05:36:20.224Z,86.80
2019-05-25T05:38:48.846Z,86.70
2019-05-25T05:41:17.005Z,86.90
2019-05-25T05:43:47.938Z,87.60
2019-05-25T05:46:16.239Z,87.10
2019-05-25T05:48:47.810Z,86.80
2019-05-25T05:51:18.022Z,87.60
2019-05-25T05:53:46.317Z,86.80
2019-05-25T05:56:12.729Z,86.90
2019-05-25T05:58:39.708Z,86.80
2019-05-25T06:01:06.272Z,86.40
2019-05-25T06:03:32.776Z,86.80
2019-05-25T06:05:59.349Z,86.70
2019-05-25T06:08:26.153Z,86.60
2019-05-25T06:10:52.756Z,85.30
2019-05-25T06:13:19.677Z,85.70
2019-05-25T06:15:46.299Z,85.70
2019-05-25T06:18:12.703Z,85.30
2019-05-25T06:20:39.323Z,85.70
2019-05-25T06:23:08.642Z,85.80
2019-05-25T06:25:35.114Z,85.60
2019-05-25T06:28:01.626Z,85.60
2019-05-25T06:30:28.282Z,85.60
2019-05-25T06:32:54.811Z,86.00
2019-05-25T06:35:21.233Z,86.10
2019-05-25T06:37:47.720Z,85.60
2019-05-25T06:40:14.419Z,84.60
2019-05-25T06:42:40.946Z,83.70
2019-05-25T06:45:09.622Z,84.80
2019-05-25T06:47:36.043Z,83.90
2019-05-25T06:50:04.731Z,83.10
2019-05-25T06:52:37.220Z,84.40
2019-05-25T06:55:06.014Z,84.30
2019-05-25T06:57:42.603Z,84.60
2019-05-25T07:00:01.142Z,83.10
2019-05-25T07:02:27.538Z,82.50
2019-05-25T07:04:54.198Z,82.90
2019-05-25T07:07:20.926Z,82.90
2019-05-25T07:09:47.382Z,82.30
2019-05-25T07:12:13.782Z,82.90
2019-05-25T07:14:40.338Z,83.20
2019-05-25T07:17:06.735Z,82.70
2019-05-25T07:19:33.155Z,83.00
2019-05-25T07:22:02.542Z,80.50
2019-05-25T07:24:28.973Z,80.50
2019-05-25T07:26:56.090Z,80.60
2019-05-25T07:29:22.554Z,80.20
2019-05-25T07:31:49.050Z,81.30
2019-05-25T07:34:15.938Z,79.70
2019-05-25T07:36:42.586Z,77.90
2019-05-25T07:39:08.998Z,78.70
2019-05-25T07:41:35.530Z,78.30
2019-05-25T07:44:02.109Z,78.20
2019-05-25T07:46:30.566Z,77.20
2019-05-25T07:48:57.091Z,76.30
2019-05-25T07:51:23.976Z,76.70
2019-05-25T07:53:50.643Z,77.40
2019-05-25T07:56:17.041Z,76.60
2019-05-25T07:58:43.457Z,75.50
2019-05-25T08:01:09.981Z,75.30
2019-05-25T08:03:39.635Z,76.40
2019-05-25T08:06:04.974Z,74.50
2019-05-25T08:08:31.566Z,74.20
2019-05-25T08:10:58.026Z,75.60
2019-05-25T08:13:24.547Z,74.30
2019-05-25T08:15:51.150Z,73.30
2019-05-25T08:18:17.619Z,72.40
2019-05-25T08:20:47.055Z,73.60
2019-05-25T08:23:12.377Z,73.20
2019-05-25T08:25:38.958Z,72.30
2019-05-25T08:28:06.190Z,70.50
2019-05-25T08:30:32.692Z,71.30
2019-05-25T08:33:01.262Z,73.50
2019-05-25T08:35:28.278Z,71.30
2019-05-25T08:37:54.687Z,70.60
2019-05-25T08:40:21.243Z,72.00
2019-05-25T08:42:47.646Z,73.20
2019-05-25T08:45:14.282Z,72.00
2019-05-25T08:47:40.942Z,70.20
2019-05-25T08:50:08.011Z,71.70
2019-05-25T08:52:34.618Z,70.10
2019-05-25T08:55:01.429Z,70.80
2019-05-25T08:57:28.402Z,70.00
2019-05-25T08:59:54.790Z,72.20
2019-05-25T09:02:21.349Z,71.60
2019-05-25T09:04:48.341Z,69.70
2019-05-25T09:07:14.856Z,66.90
2019-05-25T09:09:41.392Z,65.60
2019-05-25T09:12:07.902Z,65.50
2019-05-25T09:14:34.412Z,68.50
2019-05-25T09:17:01.075Z,65.60
2019-05-25T09:19:29.416Z,66.70
2019-05-25T09:22:02.530Z,66.00
2019-05-25T09:24:24.677Z,65.70
2019-05-25T09:26:51.496Z,62.00
2019-05-25T09:29:18.119Z,63.50
2019-05-25T09:31:44.537Z,65.00
2019-05-25T09:34:11.219Z,64.20
2019-05-25T09:36:37.946Z,65.40
2019-05-25T09:39:06.474Z,67.30
2019-05-25T09:41:33.187Z,65.20
2019-05-25T09:43:59.889Z,65.40
2019-05-25T09:46:26.581Z,67.60
2019-05-25T09:48:53.106Z,69.20
2019-05-25T09:51:19.725Z,67.40
2019-05-25T09:53:46.189Z,68.40
2019-05-25T09:56:14.792Z,68.00
2019-05-25T09:58:41.312Z,69.10
2019-05-25T10:01:08.106Z,68.30
2019-05-25T10:03:34.498Z,67.70
2019-05-25T10:06:10.073Z,67.80
2019-05-25T10:08:29.834Z,70.60
2019-05-25T10:10:56.329Z,70.40
2019-05-25T10:13:22.927Z,70.60
2019-05-25T10:15:49.449Z,69.70
2019-05-25T10:18:15.905Z,69.40
2019-05-25T10:20:42.429Z,68.20
2019-05-25T10:23:08.915Z,69.60
2019-05-25T10:25:35.611Z,68.50
2019-05-25T10:28:02.777Z,68.50
2019-05-25T10:30:29.377Z,66.10
2019-05-25T10:32:55.904Z,64.40
2019-05-25T10:35:22.379Z,63.70
2019-05-25T10:37:48.806Z,63.30
2019-05-25T10:40:15.921Z,63.10
2019-05-25T10:42:42.369Z,60.00
2019-05-25T10:45:10.643Z,60.70
2019-05-25T10:47:37.259Z,61.10
2019-05-25T10:50:10.748Z,61.00
2019-05-25T10:52:37.952Z,58.70
2019-05-25T10:55:09.302Z,57.70
2019-05-25T10:57:36.272Z,57.00
2019-05-25T11:00:08.445Z,58.90
2019-05-25T11:02:35.049Z,60.00
2019-05-25T11:05:02.400Z,60.60
2019-05-25T11:07:28.945Z,59.30
2019-05-25T11:09:55.562Z,60.30
2019-05-25T11:12:25.802Z,58.50
2019-05-25T11:14:50.627Z,57.50
2019-05-25T11:17:17.124Z,56.90
2019-05-25T11:19:43.762Z,56.20
2019-05-25T11:22:10.706Z,55.00
2019-05-25T11:24:37.189Z,56.40
2019-05-25T11:27:03.745Z,57.90
2019-05-25T11:29:30.181Z,59.60
2019-05-25T11:32:01.657Z,59.10
2019-05-25T11:34:24.960Z,55.40
2019-05-25T11:36:52.065Z,53.10
2019-05-25T11:39:18.665Z,52.30
2019-05-25T11:41:45.069Z,51.40
2019-05-25T11:44:11.470Z,52.80
2019-05-25T11:46:38.024Z,52.20
2019-05-25T11:49:04.535Z,51.00
2019-05-25T11:51:31.512Z,51.60
2019-05-25T11:53:58.071Z,52.10
2019-05-25T11:56:24.511Z,51.40
2019-05-25T11:58:51.038Z,52.90
2019-05-25T12:01:17.451Z,53.20
2019-05-25T12:03:43.907Z,51.80
2019-05-25T12:06:10.701Z,52.20
2019-05-25T12:08:37.251Z,54.20
2019-05-25T12:11:04.465Z,51.90
2019-05-25T12:13:32.219Z,50.50
2019-05-25T12:15:59.254Z,50.70
2019-05-25T12:18:25.909Z,50.90
2019-05-25T12:20:52.304Z,49.30
2019-05-25T12:23:18.844Z,49.10
2019-05-25T12:25:45.542Z,49.60
2019-05-25T12:28:12.050Z,47.80
2019-05-25T12:30:41.162Z,48.40
2019-05-25T12:33:07.118Z,49.30
2019-05-25T12:35:33.717Z,48.20
2019-05-25T12:38:00.255Z,50.50
2019-05-25T12:40:26.901Z,49.90
2019-05-25T12:42:53.307Z,48.20
2019-05-25T12:45:21.911Z,49.60
2019-05-25T12:47:48.568Z,48.20
2019-05-25T12:50:15.736Z,50.80
2019-05-25T12:52:42.373Z,50.90
2019-05-25T12:55:09.183Z,50.80
2019-05-25T12:57:35.597Z,51.10
2019-05-25T13:00:14.736Z,49.10
2019-05-25T13:02:33.138Z,50.00
2019-05-25T13:04:59.642Z,48.00
2019-05-25T13:07:26.150Z,47.80
2019-05-25T13:09:52.607Z,47.60
2019-05-25T13:12:19.118Z,48.90
2019-05-25T13:14:45.619Z,51.40
2019-05-25T13:17:12.287Z,50.60
2019-05-25T13:19:38.714Z,49.40
2019-05-25T13:22:05.210Z,49.70
2019-05-25T13:24:32.267Z,50.70
2019-05-25T13:26:58.775Z,50.90
2019-05-25T13:29:25.210Z,51.50
2019-05-25T13:31:51.900Z,50.10
2019-05-25T13:34:18.901Z,48.60
2019-05-25T13:36:45.862Z,48.40
2019-05-25T13:39:12.468Z,48.70
2019-05-25T13:41:38.959Z,48.30
2019-05-25T13:44:05.650Z,47.30
2019-05-25T13:46:32.074Z,47.80
2019-05-25T13:48:58.530Z,46.40
2019-05-25T13:51:24.977Z,45.30
2019-05-25T13:53:51.581Z,45.60
2019-05-25T13:56:18.241Z,47.00
2019-05-25T13:58:45.254Z,48.80
2019-05-25T14:01:25.599Z,47.30
2019-05-25T14:03:40.136Z,48.00
2019-05-25T14:06:06.649Z,46.80
2019-05-25T14:08:33.091Z,45.70
2019-05-25T14:10:59.502Z,45.50
2019-05-25T14:13:26.020Z,45.90
2019-05-25T14:16:06.711Z,47.90
2019-05-25T14:18:22.804Z,47.90
2019-05-25T14:20:49.402Z,49.80
2019-05-25T14:23:15.876Z,50.20
2019-05-25T14:25:42.646Z,50.70
2019-05-25T14:28:09.166Z,49.50
2019-05-25T14:30:36.033Z,48.60
2019-05-25T14:33:02.594Z,48.80
2019-05-25T14:35:29.479Z,47.60
2019-05-25T14:37:55.922Z,46.60
2019-05-25T14:40:22.569Z,46.50
2019-05-25T14:42:51.676Z,44.80
2019-05-25T14:45:18.746Z,47.10
2019-05-25T14:47:45.302Z,49.60
2019-05-25T14:50:12.531Z,47.90
2019-05-25T14:52:39.092Z,48.40
2019-05-25T14:55:07.199Z,47.50
2019-05-25T14:57:33.637Z,48.20
2019-05-25T15:00:00.261Z,47.80
2019-05-25T15:02:27.296Z,47.10
2019-05-25T15:04:56.297Z,47.80
2019-05-25T15:07:22.937Z,48.30
2019-05-25T15:09:49.436Z,48.30
2019-05-25T15:12:16.011Z,48.80
2019-05-25T15:14:42.420Z,48.50
2019-05-25T15:17:08.963Z,47.10
2019-05-25T15:19:35.549Z,46.90
2019-05-25T15:22:02.388Z,47.20
2019-05-25T15:24:29.784Z,47.20
2019-05-25T15:26:56.411Z,47.20
2019-05-25T15:29:22.912Z,48.20
2019-05-25T15:31:49.434Z,49.20
2019-05-25T15:34:16.090Z,49.50
2019-05-25T15:36:42.610Z,48.90
2019-05-25T15:39:09.220Z,50.40
2019-05-25T15:41:35.663Z,50.50
2019-05-25T15:44:02.768Z,50.40
2019-05-25T15:46:29.754Z,50.40
2019-05-25T15:48:56.316Z,48.90
2019-05-25T15:51:22.831Z,50.50
2019-05-25T15:53:49.338Z,50.00
2019-05-25T15:56:15.906Z,50.00
2019-05-25T15:58:42.306Z,50.40
2019-05-25T16:01:08.801Z,50.60
2019-05-25T16:03:35.805Z,49.80
2019-05-25T16:06:02.413Z,49.80
2019-05-25T16:08:29.042Z,50.00
2019-05-25T16:10:56.095Z,51.30
2019-05-25T16:13:22.713Z,51.50
2019-05-25T16:15:49.147Z,52.90
2019-05-25T16:18:15.757Z,53.20
2019-05-25T16:20:42.360Z,51.70
2019-05-25T16:23:09.011Z,52.30
2019-05-25T16:25:35.694Z,52.60
2019-05-25T16:28:02.762Z,53.30
2019-05-25T16:30:31.568Z,53.40
2019-05-25T16:33:11.589Z,54.00
2019-05-25T16:35:26.008Z,54.30
2019-05-25T16:37:52.603Z,54.20
2019-05-25T16:40:19.665Z,54.40
2019-05-25T16:42:46.257Z,54.30
2019-05-25T16:45:13.325Z,54.20
2019-05-25T16:47:40.373Z,54.60
2019-05-25T16:50:07.882Z,55.20
2019-05-25T16:52:34.367Z,55.40
2019-05-25T16:55:01.453Z,56.60
2019-05-25T16:57:28.107Z,56.30
2019-05-25T16:59:54.509Z,57.10
2019-05-25T17:02:21.027Z,57.80
2019-05-25T17:04:47.575Z,58.40
2019-05-25T17:07:14.243Z,58.90
2019-05-25T17:09:41.389Z,58.20
2019-05-25T17:12:08.313Z,59.20
2019-05-25T17:14:34.644Z,59.70
2019-05-25T17:17:01.181Z,60.70
2019-05-25T17:19:27.605Z,60.70
2019-05-25T17:21:54.111Z,60.70
2019-05-25T17:24:20.722Z,61.10
2019-05-25T17:26:47.259Z,62.00
2019-05-25T17:29:13.958Z,62.80
2019-05-25T17:31:40.480Z,61.80
2019-05-25T17:34:07.142Z,61.50
2019-05-25T17:36:33.537Z,63.10
2019-05-25T17:39:00.132Z,63.00
2019-05-25T17:41:27.191Z,62.20
2019-05-25T17:43:54.149Z,61.90
2019-05-25T17:46:20.570Z,63.40
2019-05-25T17:48:48.069Z,64.10
2019-05-25T17:51:14.810Z,63.20
2019-05-25T17:53:41.249Z,63.60
2019-05-25T17:56:07.959Z,64.20
2019-05-25T17:58:34.353Z,64.70
2019-05-25T18:01:00.921Z,64.70
2019-05-25T18:03:27.553Z,64.20
2019-05-25T18:05:54.961Z,63.80
2019-05-25T18:08:21.930Z,64.90
2019-05-25T18:10:53.510Z,64.60
2019-05-25T18:13:17.000Z,64.70
2019-05-25T18:15:43.602Z,64.20
2019-05-25T18:18:10.212Z,64.40
2019-05-25T18:20:36.874Z,64.40
2019-05-25T18:23:04.596Z,64.60
2019-05-25T18:25:31.508Z,64.20
2019-05-25T18:27:58.138Z,65.00
2019-05-25T18:30:26.344Z,65.00
2019-05-25T18:32:53.397Z,64.50
2019-05-25T18:35:19.991Z,64.90
2019-05-25T18:37:46.590Z,65.50
2019-05-25T18:40:14.545Z,65.50
2019-05-25T18:42:40.983Z,66.20
2019-05-25T18:45:08.842Z,66.10
2019-05-25T18:47:35.583Z,66.10
2019-05-25T18:50:05.814Z,66.70
2019-05-25T18:52:32.498Z,66.40
2019-05-25T18:54:58.896Z,67.10
2019-05-25T18:57:25.604Z,66.90
2019-05-25T18:59:52.249Z,67.60
2019-05-25T19:02:19.151Z,67.80
2019-05-25T19:04:58.049Z,67.30
2019-05-25T19:07:13.945Z,68.10
2019-05-25T19:09:40.360Z,67.90
2019-05-25T19:12:06.976Z,68.90
2019-05-25T19:14:33.428Z,69.20
2019-05-25T19:17:00.038Z,68.60
2019-05-25T19:19:26.567Z,68.70
2019-05-25T19:21:53.219Z,68.70
2019-05-25T19:24:19.641Z,68.90
2019-05-25T19:26:49.022Z,68.80
2019-05-25T19:29:15.938Z,69.10
2019-05-25T19:31:42.339Z,69.90
2019-05-25T19:34:08.952Z,68.90
2019-05-25T19:36:35.523Z,69.60
2019-05-25T19:39:04.953Z,69.10
2019-05-25T19:41:31.505Z,68.60
2019-05-25T19:43:58.033Z,69.80
2019-05-25T19:46:24.611Z,69.60
2019-05-25T19:48:51.141Z,69.60
2019-05-25T19:51:17.748Z,70.40
2019-05-25T19:53:46.619Z,70.80
2019-05-25T19:56:13.270Z,70.40
2019-05-25T19:58:39.789Z,71.00
2019-05-25T20:01:06.354Z,70.10
2019-05-25T20:03:32.766Z,70.80
2019-05-25T20:05:59.254Z,70.80
2019-05-25T20:08:25.797Z,70.20
2019-05-25T20:10:55.475Z,70.20
2019-05-25T20:13:20.809Z,70.40
2019-05-25T20:15:48.013Z,70.40
2019-05-25T20:18:14.520Z,70.80
2019-05-25T20:20:41.034Z,71.00
2019-05-25T20:23:07.778Z,70.90
2019-05-25T20:25:34.184Z,71.40
2019-05-25T20:28:00.647Z,70.90
2019-05-25T20:30:27.177Z,70.80
2019-05-25T20:32:53.680Z,71.30
2019-05-25T20:35:32.233Z,70.50
2019-05-25T20:37:48.572Z,70.20
2019-05-25T20:40:15.338Z,70.20
2019-05-25T20:42:42.106Z,70.40
2019-05-25T20:45:09.675Z,70.70
2019-05-25T20:47:36.389Z,71.40
2019-05-25T20:50:07.055Z,71.10
2019-05-25T20:52:33.669Z,71.20
2019-05-25T20:55:00.494Z,72.50
2019-05-25T20:57:26.979Z,73.00
2019-05-25T20:59:54.833Z,72.10
2019-05-25T21:02:21.386Z,71.30
2019-05-25T21:04:47.793Z,72.70
2019-05-25T21:07:14.193Z,73.80
2019-05-25T21:09:40.744Z,73.30
2019-05-25T21:12:07.370Z,74.40
2019-05-25T21:14:33.793Z,73.90
2019-05-25T21:17:00.601Z,74.50
2019-05-25T21:19:27.034Z,76.00
2019-05-25T21:21:53.546Z,75.50
2019-05-25T21:24:20.247Z,75.90
2019-05-25T21:26:46.678Z,76.10
2019-05-25T21:29:13.311Z,77.10
2019-05-25T21:31:40.201Z,76.90
2019-05-25T21:34:06.706Z,77.20
2019-05-25T21:36:33.169Z,77.30
2019-05-25T21:38:59.575Z,77.50
2019-05-25T21:41:26.071Z,78.00
2019-05-25T21:43:52.958Z,78.20
2019-05-25T21:46:19.473Z,78.60
2019-05-25T21:48:46.504Z,78.70
2019-05-25T21:51:13.017Z,78.60
2019-05-25T21:53:39.523Z,79.30
2019-05-25T21:56:06.090Z,80.20
2019-05-25T21:58:33.100Z,79.70
2019-05-25T22:00:59.770Z,79.30
2019-05-25T22:03:27.223Z,79.10
2019-05-25T22:05:53.722Z,78.90
2019-05-25T22:08:20.272Z,79.00
2019-05-25T22:10:46.775Z,81.80
2019-05-25T22:13:25.243Z,79.10
2019-05-25T22:15:41.851Z,79.00
2019-05-25T22:18:08.398Z,79.80
2019-05-25T22:20:34.891Z,80.80
2019-05-25T22:23:01.606Z,80.90
2019-05-25T22:25:29.262Z,81.30
2019-05-25T22:27:57.611Z,81.60
2019-05-25T22:30:24.309Z,81.70
2019-05-25T22:32:51.018Z,82.20
2019-05-25T22:35:18.134Z,81.90
2019-05-25T22:37:44.616Z,82.50
2019-05-25T22:40:11.515Z,82.90
2019-05-25T22:42:38.045Z,82.50
2019-05-25T22:45:06.333Z,82.30
2019-05-25T22:47:33.090Z,82.40
2019-05-25T22:50:01.705Z,82.50
2019-05-25T22:52:28.296Z,82.50
2019-05-25T22:54:54.930Z,82.20
2019-05-25T22:57:21.540Z,82.70
2019-05-25T22:59:48.103Z,83.10
2019-05-25T23:02:14.502Z,83.00
2019-05-25T23:04:40.914Z,83.50
2019-05-25T23:07:07.997Z,83.30
2019-05-25T23:09:34.966Z,83.60
2019-05-25T23:12:01.969Z,84.10
2019-05-25T23:14:28.435Z,84.40
2019-05-25T23:16:55.002Z,84.10
2019-05-25T23:19:21.562Z,84.10
2019-05-25T23:21:47.952Z,84.40
2019-05-25T23:24:14.349Z,84.70
2019-05-25T23:26:40.849Z,84.80
2019-05-25T23:29:07.483Z,85.10
2019-05-25T23:31:33.887Z,85.30
2019-05-25T23:34:00.902Z,85.10
2019-05-25T23:36:27.306Z,84.80
2019-05-25T23:38:53.754Z,85.00
2019-05-25T23:41:20.558Z,84.20
2019-05-25T23:43:47.065Z,83.10
2019-05-25T23:46:13.509Z,82.80
2019-05-25T23:48:39.992Z,83.00
2019-05-25T23:51:06.399Z,82.30
2019-05-25T23:53:33.363Z,82.50
2019-05-25T23:55:59.859Z,82.50
2019-05-25T23:58:26.375Z,82.90
